sensor_id;sensor_type;location;lat;lon;timestamp;P1;durP1;ratioP1;P2;durP2;ratioP2
7338;SDS011;33747;49.524;8.390;2023-07-29T00:01:04;4.78;;;2.63;;
7338;SDS011;33747;49.524;8.390;2023-07-29T00:03:30;2.92;;;2.22;;
7338;SDS011;33747;49.524;8.390;2023-07-29T00:05:56;1.92;;;1.80;;
7338;SDS011;33747;49.524;8.390;2023-07-29T00:08:22;3.40;;;1.95;;
7338;SDS011;33747;49.524;8.390;2023-07-29T00:10:47;2.33;;;1.60;;
7338;SDS011;33747;49.524;8.390;2023-07-29T00:13:13;2.30;;;1.98;;
7338;SDS011;33747;49.524;8.390;2023-07-29T00:15:38;4.50;;;2.00;;
7338;SDS011;33747;49.524;8.390;2023-07-29T00:18:03;3.30;;;1.98;;
7338;SDS011;33747;49.524;8.390;2023-07-29T00:20:29;1.65;;;1.52;;
7338;SDS011;33747;49.524;8.390;2023-07-29T00:22:54;5.78;;;1.88;;
7338;SDS011;33747;49.524;8.390;2023-07-29T00:25:20;2.38;;;1.70;;
7338;SDS011;33747;49.524;8.390;2023-07-29T00:27:46;3.25;;;2.03;;
7338;SDS011;33747;49.524;8.390;2023-07-29T00:30:11;2.30;;;2.10;;
7338;SDS011;33747;49.524;8.390;2023-07-29T00:32:36;3.45;;;2.03;;
7338;SDS011;33747;49.524;8.390;2023-07-29T00:35:02;5.18;;;2.00;;
7338;SDS011;33747;49.524;8.390;2023-07-29T00:37:27;2.50;;;2.30;;
7338;SDS011;33747;49.524;8.390;2023-07-29T00:39:53;5.95;;;2.13;;
7338;SDS011;33747;49.524;8.390;2023-07-29T00:42:19;1.73;;;1.63;;
7338;SDS011;33747;49.524;8.390;2023-07-29T00:44:44;2.53;;;2.08;;
7338;SDS011;33747;49.524;8.390;2023-07-29T00:47:09;2.22;;;2.00;;
7338;SDS011;33747;49.524;8.390;2023-07-29T00:49:36;5.90;;;2.10;;
7338;SDS011;33747;49.524;8.390;2023-07-29T00:52:02;3.28;;;2.03;;
7338;SDS011;33747;49.524;8.390;2023-07-29T00:54:27;3.08;;;2.28;;
7338;SDS011;33747;49.524;8.390;2023-07-29T00:56:53;4.93;;;2.33;;
7338;SDS011;33747;49.524;8.390;2023-07-29T00:59:18;4.22;;;2.10;;
7338;SDS011;33747;49.524;8.390;2023-07-29T01:01:43;2.67;;;2.13;;
7338;SDS011;33747;49.524;8.390;2023-07-29T01:04:09;2.72;;;2.47;;
7338;SDS011;33747;49.524;8.390;2023-07-29T01:09:26;2.25;;;1.85;;
7338;SDS011;33747;49.524;8.390;2023-07-29T01:12:06;5.70;;;1.80;;
7338;SDS011;33747;49.524;8.390;2023-07-29T01:14:39;3.85;;;1.88;;
7338;SDS011;33747;49.524;8.390;2023-07-29T01:17:30;1.52;;;1.42;;
7338;SDS011;33747;49.524;8.390;2023-07-29T01:20:00;2.88;;;2.00;;
7338;SDS011;33747;49.524;8.390;2023-07-29T01:22:45;3.20;;;1.88;;
7338;SDS011;33747;49.524;8.390;2023-07-29T01:25:11;4.68;;;1.60;;
7338;SDS011;33747;49.524;8.390;2023-07-29T01:27:36;5.38;;;1.40;;
7338;SDS011;33747;49.524;8.390;2023-07-29T01:30:02;3.25;;;1.55;;
7338;SDS011;33747;49.524;8.390;2023-07-29T01:32:29;4.78;;;2.10;;
7338;SDS011;33747;49.524;8.390;2023-07-29T01:37:51;1.90;;;1.55;;
7338;SDS011;33747;49.524;8.390;2023-07-29T01:40:20;4.25;;;1.48;;
7338;SDS011;33747;49.524;8.390;2023-07-29T01:42:48;6.15;;;1.40;;
7338;SDS011;33747;49.524;8.390;2023-07-29T01:45:13;1.73;;;1.30;;
7338;SDS011;33747;49.524;8.390;2023-07-29T01:47:38;3.00;;;1.67;;
7338;SDS011;33747;49.524;8.390;2023-07-29T01:50:06;3.88;;;1.33;;
7338;SDS011;33747;49.524;8.390;2023-07-29T01:52:32;2.17;;;1.55;;
7338;SDS011;33747;49.524;8.390;2023-07-29T01:54:57;7.20;;;1.42;;
7338;SDS011;33747;49.524;8.390;2023-07-29T01:57:23;1.95;;;1.45;;
7338;SDS011;33747;49.524;8.390;2023-07-29T01:59:48;1.52;;;1.00;;
7338;SDS011;33747;49.524;8.390;2023-07-29T02:02:14;1.60;;;1.50;;
7338;SDS011;33747;49.524;8.390;2023-07-29T02:04:39;2.05;;;1.45;;
7338;SDS011;33747;49.524;8.390;2023-07-29T02:07:04;2.65;;;1.55;;
7338;SDS011;33747;49.524;8.390;2023-07-29T02:09:30;2.97;;;1.50;;
7338;SDS011;33747;49.524;8.390;2023-07-29T02:11:56;2.17;;;1.33;;
7338;SDS011;33747;49.524;8.390;2023-07-29T02:14:22;2.75;;;1.60;;
7338;SDS011;33747;49.524;8.390;2023-07-29T02:16:47;1.42;;;1.33;;
7338;SDS011;33747;49.524;8.390;2023-07-29T02:19:13;3.88;;;1.85;;
7338;SDS011;33747;49.524;8.390;2023-07-29T02:21:38;1.40;;;1.30;;
7338;SDS011;33747;49.524;8.390;2023-07-29T02:24:04;1.55;;;1.40;;
7338;SDS011;33747;49.524;8.390;2023-07-29T02:26:29;3.30;;;1.60;;
7338;SDS011;33747;49.524;8.390;2023-07-29T02:28:54;4.78;;;1.65;;
7338;SDS011;33747;49.524;8.390;2023-07-29T02:31:24;4.85;;;1.55;;
7338;SDS011;33747;49.524;8.390;2023-07-29T02:33:50;4.43;;;1.60;;
7338;SDS011;33747;49.524;8.390;2023-07-29T02:36:16;1.73;;;1.60;;
7338;SDS011;33747;49.524;8.390;2023-07-29T02:38:41;2.55;;;1.67;;
7338;SDS011;33747;49.524;8.390;2023-07-29T02:41:10;5.45;;;1.55;;
7338;SDS011;33747;49.524;8.390;2023-07-29T02:43:37;4.22;;;1.50;;
7338;SDS011;33747;49.524;8.390;2023-07-29T02:46:03;6.10;;;1.98;;
7338;SDS011;33747;49.524;8.390;2023-07-29T02:48:28;7.50;;;1.65;;
7338;SDS011;33747;49.524;8.390;2023-07-29T02:50:54;2.28;;;1.50;;
7338;SDS011;33747;49.524;8.390;2023-07-29T02:53:20;1.95;;;1.60;;
7338;SDS011;33747;49.524;8.390;2023-07-29T02:55:46;1.88;;;1.75;;
7338;SDS011;33747;49.524;8.390;2023-07-29T02:58:12;1.50;;;1.40;;
7338;SDS011;33747;49.524;8.390;2023-07-29T03:00:37;2.38;;;1.75;;
7338;SDS011;33747;49.524;8.390;2023-07-29T03:03:03;5.85;;;2.28;;
7338;SDS011;33747;49.524;8.390;2023-07-29T03:05:29;3.17;;;1.83;;
7338;SDS011;33747;49.524;8.390;2023-07-29T03:07:54;1.65;;;1.55;;
7338;SDS011;33747;49.524;8.390;2023-07-29T03:10:19;4.65;;;1.95;;
7338;SDS011;33747;49.524;8.390;2023-07-29T03:12:45;4.07;;;1.85;;
7338;SDS011;33747;49.524;8.390;2023-07-29T03:15:11;3.17;;;1.95;;
7338;SDS011;33747;49.524;8.390;2023-07-29T03:17:37;3.13;;;1.85;;
7338;SDS011;33747;49.524;8.390;2023-07-29T03:20:02;4.15;;;2.13;;
7338;SDS011;33747;49.524;8.390;2023-07-29T03:22:28;2.53;;;1.70;;
7338;SDS011;33747;49.524;8.390;2023-07-29T03:24:53;2.33;;;1.98;;
7338;SDS011;33747;49.524;8.390;2023-07-29T03:27:18;1.98;;;1.80;;
7338;SDS011;33747;49.524;8.390;2023-07-29T03:29:44;2.85;;;1.88;;
7338;SDS011;33747;49.524;8.390;2023-07-29T03:32:09;4.20;;;1.98;;
7338;SDS011;33747;49.524;8.390;2023-07-29T03:34:35;2.20;;;2.00;;
7338;SDS011;33747;49.524;8.390;2023-07-29T03:37:01;4.28;;;2.22;;
7338;SDS011;33747;49.524;8.390;2023-07-29T03:39:26;8.13;;;2.22;;
7338;SDS011;33747;49.524;8.390;2023-07-29T03:41:53;6.97;;;2.25;;
7338;SDS011;33747;49.524;8.390;2023-07-29T03:44:18;4.80;;;2.10;;
7338;SDS011;33747;49.524;8.390;2023-07-29T03:46:44;8.07;;;2.00;;
7338;SDS011;33747;49.524;8.390;2023-07-29T03:49:10;9.75;;;1.98;;
7338;SDS011;33747;49.524;8.390;2023-07-29T03:51:35;4.75;;;1.90;;
7338;SDS011;33747;49.524;8.390;2023-07-29T03:54:00;3.22;;;2.25;;
7338;SDS011;33747;49.524;8.390;2023-07-29T03:56:26;4.43;;;2.50;;
7338;SDS011;33747;49.524;8.390;2023-07-29T03:58:52;3.78;;;2.50;;
7338;SDS011;33747;49.524;8.390;2023-07-29T04:01:17;2.20;;;2.00;;
7338;SDS011;33747;49.524;8.390;2023-07-29T04:03:44;7.13;;;2.30;;
7338;SDS011;33747;49.524;8.390;2023-07-29T04:06:10;1.88;;;1.65;;
7338;SDS011;33747;49.524;8.390;2023-07-29T04:08:35;3.15;;;2.10;;
7338;SDS011;33747;49.524;8.390;2023-07-29T04:11:00;3.67;;;2.10;;
7338;SDS011;33747;49.524;8.390;2023-07-29T04:13:26;3.03;;;2.25;;
7338;SDS011;33747;49.524;8.390;2023-07-29T04:15:51;7.40;;;2.25;;
7338;SDS011;33747;49.524;8.390;2023-07-29T04:18:16;2.95;;;2.58;;
7338;SDS011;33747;49.524;8.390;2023-07-29T04:20:42;5.18;;;2.42;;
7338;SDS011;33747;49.524;8.390;2023-07-29T04:23:07;6.32;;;2.45;;
7338;SDS011;33747;49.524;8.390;2023-07-29T04:25:33;7.53;;;2.10;;
7338;SDS011;33747;49.524;8.390;2023-07-29T04:27:58;1.98;;;1.88;;
7338;SDS011;33747;49.524;8.390;2023-07-29T04:30:23;2.50;;;2.30;;
7338;SDS011;33747;49.524;8.390;2023-07-29T04:32:49;5.00;;;1.98;;
7338;SDS011;33747;49.524;8.390;2023-07-29T04:35:15;1.90;;;1.80;;
7338;SDS011;33747;49.524;8.390;2023-07-29T04:37:40;6.60;;;2.67;;
7338;SDS011;33747;49.524;8.390;2023-07-29T04:40:06;6.30;;;3.05;;
7338;SDS011;33747;49.524;8.390;2023-07-29T04:42:32;2.53;;;2.33;;
7338;SDS011;33747;49.524;8.390;2023-07-29T04:44:57;3.03;;;2.72;;
7338;SDS011;33747;49.524;8.390;2023-07-29T04:47:22;2.80;;;2.20;;
7338;SDS011;33747;49.524;8.390;2023-07-29T04:49:48;4.05;;;2.45;;
7338;SDS011;33747;49.524;8.390;2023-07-29T04:52:13;7.13;;;2.70;;
7338;SDS011;33747;49.524;8.390;2023-07-29T04:54:39;6.43;;;2.22;;
7338;SDS011;33747;49.524;8.390;2023-07-29T04:57:05;4.75;;;2.47;;
7338;SDS011;33747;49.524;8.390;2023-07-29T04:59:30;4.93;;;2.40;;
7338;SDS011;33747;49.524;8.390;2023-07-29T05:01:56;9.02;;;2.08;;
7338;SDS011;33747;49.524;8.390;2023-07-29T05:04:21;2.22;;;2.00;;
7338;SDS011;33747;49.524;8.390;2023-07-29T05:06:47;2.50;;;2.35;;
7338;SDS011;33747;49.524;8.390;2023-07-29T05:09:16;3.25;;;2.10;;
7338;SDS011;33747;49.524;8.390;2023-07-29T05:11:43;4.88;;;2.30;;
7338;SDS011;33747;49.524;8.390;2023-07-29T05:14:10;2.78;;;2.47;;
7338;SDS011;33747;49.524;8.390;2023-07-29T05:16:36;5.10;;;2.80;;
7338;SDS011;33747;49.524;8.390;2023-07-29T05:19:01;8.88;;;3.25;;
7338;SDS011;33747;49.524;8.390;2023-07-29T05:21:26;5.40;;;2.47;;
7338;SDS011;33747;49.524;8.390;2023-07-29T05:23:52;2.78;;;2.30;;
7338;SDS011;33747;49.524;8.390;2023-07-29T05:26:17;3.75;;;2.30;;
7338;SDS011;33747;49.524;8.390;2023-07-29T05:28:43;2.65;;;2.25;;
7338;SDS011;33747;49.524;8.390;2023-07-29T05:31:08;5.20;;;2.78;;
7338;SDS011;33747;49.524;8.390;2023-07-29T05:33:34;6.55;;;2.83;;
7338;SDS011;33747;49.524;8.390;2023-07-29T05:36:01;10.77;;;2.35;;
7338;SDS011;33747;49.524;8.390;2023-07-29T05:38:26;5.78;;;2.95;;
7338;SDS011;33747;49.524;8.390;2023-07-29T05:40:52;7.60;;;2.58;;
7338;SDS011;33747;49.524;8.390;2023-07-29T05:43:17;3.10;;;2.38;;
7338;SDS011;33747;49.524;8.390;2023-07-29T05:45:42;2.70;;;2.20;;
7338;SDS011;33747;49.524;8.390;2023-07-29T05:48:08;4.68;;;2.20;;
7338;SDS011;33747;49.524;8.390;2023-07-29T05:50:33;2.38;;;2.00;;
7338;SDS011;33747;49.524;8.390;2023-07-29T05:52:58;3.67;;;2.00;;
7338;SDS011;33747;49.524;8.390;2023-07-29T05:55:24;2.33;;;2.00;;
7338;SDS011;33747;49.524;8.390;2023-07-29T05:57:49;3.50;;;2.10;;
7338;SDS011;33747;49.524;8.390;2023-07-29T06:00:15;4.10;;;1.80;;
7338;SDS011;33747;49.524;8.390;2023-07-29T06:02:40;4.72;;;1.80;;
7338;SDS011;33747;49.524;8.390;2023-07-29T06:05:08;4.32;;;1.60;;
7338;SDS011;33747;49.524;8.390;2023-07-29T06:07:33;3.83;;;2.13;;
7338;SDS011;33747;49.524;8.390;2023-07-29T06:09:59;3.78;;;1.35;;
7338;SDS011;33747;49.524;8.390;2023-07-29T06:12:25;2.53;;;1.27;;
7338;SDS011;33747;49.524;8.390;2023-07-29T06:14:50;4.25;;;1.17;;
7338;SDS011;33747;49.524;8.390;2023-07-29T06:17:15;2.13;;;1.10;;
7338;SDS011;33747;49.524;8.390;2023-07-29T06:19:41;3.28;;;1.30;;
7338;SDS011;33747;49.524;8.390;2023-07-29T06:22:06;2.70;;;1.63;;
7338;SDS011;33747;49.524;8.390;2023-07-29T06:24:31;2.10;;;1.40;;
7338;SDS011;33747;49.524;8.390;2023-07-29T06:26:57;2.35;;;1.48;;
7338;SDS011;33747;49.524;8.390;2023-07-29T06:29:23;2.92;;;1.55;;
7338;SDS011;33747;49.524;8.390;2023-07-29T06:31:48;2.47;;;1.25;;
7338;SDS011;33747;49.524;8.390;2023-07-29T06:34:14;2.50;;;1.30;;
7338;SDS011;33747;49.524;8.390;2023-07-29T06:36:39;1.30;;;1.10;;
7338;SDS011;33747;49.524;8.390;2023-07-29T06:39:04;1.60;;;1.20;;
7338;SDS011;33747;49.524;8.390;2023-07-29T06:41:30;3.70;;;1.02;;
7338;SDS011;33747;49.524;8.390;2023-07-29T06:43:55;4.53;;;1.48;;
7338;SDS011;33747;49.524;8.390;2023-07-29T06:46:21;3.08;;;1.33;;
7338;SDS011;33747;49.524;8.390;2023-07-29T06:48:46;5.15;;;1.20;;
7338;SDS011;33747;49.524;8.390;2023-07-29T06:51:11;4.00;;;1.20;;
7338;SDS011;33747;49.524;8.390;2023-07-29T06:53:37;3.80;;;1.20;;
7338;SDS011;33747;49.524;8.390;2023-07-29T06:56:02;1.45;;;1.20;;
7338;SDS011;33747;49.524;8.390;2023-07-29T06:58:28;2.65;;;1.42;;
7338;SDS011;33747;49.524;8.390;2023-07-29T07:00:53;2.13;;;1.40;;
7338;SDS011;33747;49.524;8.390;2023-07-29T07:03:19;3.70;;;1.13;;
7338;SDS011;33747;49.524;8.390;2023-07-29T07:05:44;1.00;;;1.00;;
7338;SDS011;33747;49.524;8.390;2023-07-29T07:08:10;5.10;;;1.27;;
7338;SDS011;33747;49.524;8.390;2023-07-29T07:10:35;6.55;;;1.17;;
7338;SDS011;33747;49.524;8.390;2023-07-29T07:13:01;3.63;;;1.15;;
7338;SDS011;33747;49.524;8.390;2023-07-29T07:15:26;2.97;;;1.40;;
7338;SDS011;33747;49.524;8.390;2023-07-29T07:17:51;3.03;;;0.82;;
7338;SDS011;33747;49.524;8.390;2023-07-29T07:20:17;3.60;;;1.33;;
7338;SDS011;33747;49.524;8.390;2023-07-29T07:22:42;1.83;;;1.02;;
7338;SDS011;33747;49.524;8.390;2023-07-29T07:25:08;1.85;;;1.30;;
7338;SDS011;33747;49.524;8.390;2023-07-29T07:27:33;1.90;;;1.20;;
7338;SDS011;33747;49.524;8.390;2023-07-29T07:29:59;1.17;;;1.08;;
7338;SDS011;33747;49.524;8.390;2023-07-29T07:32:25;1.10;;;1.00;;
7338;SDS011;33747;49.524;8.390;2023-07-29T07:34:50;5.22;;;1.13;;
7338;SDS011;33747;49.524;8.390;2023-07-29T07:37:16;2.65;;;1.25;;
7338;SDS011;33747;49.524;8.390;2023-07-29T07:39:41;2.80;;;1.55;;
7338;SDS011;33747;49.524;8.390;2023-07-29T07:42:07;3.45;;;1.15;;
7338;SDS011;33747;49.524;8.390;2023-07-29T07:44:32;1.10;;;1.00;;
7338;SDS011;33747;49.524;8.390;2023-07-29T07:46:57;3.65;;;1.63;;
7338;SDS011;33747;49.524;8.390;2023-07-29T07:49:23;1.75;;;1.65;;
7338;SDS011;33747;49.524;8.390;2023-07-29T07:51:48;5.55;;;1.90;;
7338;SDS011;33747;49.524;8.390;2023-07-29T07:54:13;4.72;;;1.30;;
7338;SDS011;33747;49.524;8.390;2023-07-29T07:56:39;9.02;;;1.27;;
7338;SDS011;33747;49.524;8.390;2023-07-29T07:59:04;1.65;;;1.08;;
7338;SDS011;33747;49.524;8.390;2023-07-29T08:01:36;3.33;;;1.40;;
7338;SDS011;33747;49.524;8.390;2023-07-29T08:04:05;3.65;;;1.20;;
7338;SDS011;33747;49.524;8.390;2023-07-29T08:06:31;3.45;;;1.42;;
7338;SDS011;33747;49.524;8.390;2023-07-29T08:08:56;2.53;;;1.10;;
7338;SDS011;33747;49.524;8.390;2023-07-29T08:11:22;5.20;;;0.90;;
7338;SDS011;33747;49.524;8.390;2023-07-29T08:13:47;2.15;;;1.50;;
7338;SDS011;33747;49.524;8.390;2023-07-29T08:16:12;4.22;;;0.80;;
7338;SDS011;33747;49.524;8.390;2023-07-29T08:18:38;7.90;;;1.33;;
7338;SDS011;33747;49.524;8.390;2023-07-29T08:21:03;3.22;;;1.58;;
7338;SDS011;33747;49.524;8.390;2023-07-29T08:23:33;3.25;;;1.05;;
7338;SDS011;33747;49.524;8.390;2023-07-29T08:26:00;9.50;;;1.05;;
7338;SDS011;33747;49.524;8.390;2023-07-29T08:30:56;4.50;;;1.10;;
7338;SDS011;33747;49.524;8.390;2023-07-29T08:33:22;8.20;;;1.50;;
7338;SDS011;33747;49.524;8.390;2023-07-29T08:35:47;0.77;;;0.55;;
7338;SDS011;33747;49.524;8.390;2023-07-29T08:38:13;3.50;;;1.00;;
7338;SDS011;33747;49.524;8.390;2023-07-29T08:40:41;1.23;;;1.05;;
7338;SDS011;33747;49.524;8.390;2023-07-29T08:43:08;0.85;;;0.85;;
7338;SDS011;33747;49.524;8.390;2023-07-29T08:45:34;1.90;;;1.10;;
7338;SDS011;33747;49.524;8.390;2023-07-29T08:48:02;0.77;;;0.77;;
7338;SDS011;33747;49.524;8.390;2023-07-29T08:50:29;1.40;;;1.00;;
7338;SDS011;33747;49.524;8.390;2023-07-29T08:52:54;8.18;;;0.95;;
7338;SDS011;33747;49.524;8.390;2023-07-29T08:55:21;3.10;;;1.15;;
7338;SDS011;33747;49.524;8.390;2023-07-29T08:57:46;1.23;;;0.80;;
7338;SDS011;33747;49.524;8.390;2023-07-29T09:00:12;1.00;;;0.90;;
7338;SDS011;33747;49.524;8.390;2023-07-29T09:02:37;2.17;;;1.10;;
7338;SDS011;33747;49.524;8.390;2023-07-29T09:05:03;1.73;;;1.10;;
7338;SDS011;33747;49.524;8.390;2023-07-29T09:07:30;1.05;;;0.90;;
7338;SDS011;33747;49.524;8.390;2023-07-29T09:09:55;0.90;;;0.90;;
7338;SDS011;33747;49.524;8.390;2023-07-29T09:12:20;1.30;;;1.10;;
7338;SDS011;33747;49.524;8.390;2023-07-29T09:14:46;1.15;;;1.02;;
7338;SDS011;33747;49.524;8.390;2023-07-29T09:17:11;3.30;;;1.05;;
7338;SDS011;33747;49.524;8.390;2023-07-29T09:19:37;2.00;;;1.02;;
7338;SDS011;33747;49.524;8.390;2023-07-29T09:22:02;1.27;;;1.00;;
7338;SDS011;33747;49.524;8.390;2023-07-29T09:24:28;1.92;;;1.17;;
7338;SDS011;33747;49.524;8.390;2023-07-29T09:26:57;5.95;;;1.00;;
7338;SDS011;33747;49.524;8.390;2023-07-29T09:29:22;1.30;;;1.10;;
7338;SDS011;33747;49.524;8.390;2023-07-29T09:31:48;1.15;;;1.05;;
7338;SDS011;33747;49.524;8.390;2023-07-29T09:34:14;3.47;;;1.30;;
7338;SDS011;33747;49.524;8.390;2023-07-29T09:36:40;1.40;;;1.17;;
7338;SDS011;33747;49.524;8.390;2023-07-29T09:39:10;1.08;;;1.02;;
7338;SDS011;33747;49.524;8.390;2023-07-29T09:41:36;2.25;;;1.38;;
7338;SDS011;33747;49.524;8.390;2023-07-29T09:44:02;4.32;;;1.40;;
7338;SDS011;33747;49.524;8.390;2023-07-29T09:46:32;1.52;;;1.33;;
7338;SDS011;33747;49.524;8.390;2023-07-29T09:48:59;1.52;;;1.40;;
7338;SDS011;33747;49.524;8.390;2023-07-29T09:51:24;3.50;;;1.10;;
7338;SDS011;33747;49.524;8.390;2023-07-29T09:53:50;2.42;;;1.23;;
7338;SDS011;33747;49.524;8.390;2023-07-29T09:56:16;1.38;;;1.25;;
7338;SDS011;33747;49.524;8.390;2023-07-29T09:58:45;3.25;;;1.70;;
7338;SDS011;33747;49.524;8.390;2023-07-29T10:01:13;1.48;;;1.27;;
7338;SDS011;33747;49.524;8.390;2023-07-29T10:03:39;1.67;;;1.58;;
7338;SDS011;33747;49.524;8.390;2023-07-29T10:06:06;4.05;;;1.17;;
7338;SDS011;33747;49.524;8.390;2023-07-29T10:08:32;3.00;;;1.10;;
7338;SDS011;33747;49.524;8.390;2023-07-29T10:11:00;6.22;;;1.92;;
7338;SDS011;33747;49.524;8.390;2023-07-29T10:13:26;3.00;;;1.10;;
7338;SDS011;33747;49.524;8.390;2023-07-29T10:15:53;2.25;;;1.40;;
7338;SDS011;33747;49.524;8.390;2023-07-29T10:18:19;2.40;;;1.30;;
7338;SDS011;33747;49.524;8.390;2023-07-29T10:20:44;2.42;;;1.30;;
7338;SDS011;33747;49.524;8.390;2023-07-29T10:23:11;1.63;;;1.40;;
7338;SDS011;33747;49.524;8.390;2023-07-29T10:25:38;1.50;;;1.08;;
7338;SDS011;33747;49.524;8.390;2023-07-29T10:28:07;6.05;;;1.30;;
7338;SDS011;33747;49.524;8.390;2023-07-29T10:30:33;1.40;;;1.30;;
7338;SDS011;33747;49.524;8.390;2023-07-29T10:32:59;1.95;;;1.40;;
7338;SDS011;33747;49.524;8.390;2023-07-29T10:35:27;3.72;;;1.25;;
7338;SDS011;33747;49.524;8.390;2023-07-29T10:37:52;1.95;;;1.20;;
7338;SDS011;33747;49.524;8.390;2023-07-29T10:40:18;1.42;;;1.10;;
7338;SDS011;33747;49.524;8.390;2023-07-29T10:43:00;2.20;;;1.20;;
7338;SDS011;33747;49.524;8.390;2023-07-29T10:45:27;3.97;;;1.10;;
7338;SDS011;33747;49.524;8.390;2023-07-29T10:48:04;6.93;;;1.35;;
7338;SDS011;33747;49.524;8.390;2023-07-29T10:50:31;1.30;;;1.20;;
7338;SDS011;33747;49.524;8.390;2023-07-29T10:52:56;3.13;;;1.63;;
7338;SDS011;33747;49.524;8.390;2023-07-29T10:55:23;5.05;;;1.30;;
7338;SDS011;33747;49.524;8.390;2023-07-29T10:58:12;2.55;;;1.20;;
7338;SDS011;33747;49.524;8.390;2023-07-29T11:00:43;2.38;;;1.20;;
7338;SDS011;33747;49.524;8.390;2023-07-29T11:03:09;2.50;;;1.10;;
7338;SDS011;33747;49.524;8.390;2023-07-29T11:05:44;4.10;;;1.10;;
7338;SDS011;33747;49.524;8.390;2023-07-29T11:08:49;1.73;;;1.50;;
7338;SDS011;33747;49.524;8.390;2023-07-29T11:11:08;1.20;;;1.10;;
7338;SDS011;33747;49.524;8.390;2023-07-29T11:13:37;4.13;;;1.50;;
7338;SDS011;33747;49.524;8.390;2023-07-29T11:16:03;1.35;;;1.25;;
7338;SDS011;33747;49.524;8.390;2023-07-29T11:18:30;1.38;;;1.27;;
7338;SDS011;33747;49.524;8.390;2023-07-29T11:20:57;1.90;;;1.20;;
7338;SDS011;33747;49.524;8.390;2023-07-29T11:23:27;3.28;;;1.60;;
7338;SDS011;33747;49.524;8.390;2023-07-29T11:25:54;1.30;;;1.20;;
7338;SDS011;33747;49.524;8.390;2023-07-29T11:28:19;1.20;;;1.10;;
7338;SDS011;33747;49.524;8.390;2023-07-29T11:30:44;3.78;;;1.15;;
7338;SDS011;33747;49.524;8.390;2023-07-29T11:33:10;1.00;;;0.98;;
7338;SDS011;33747;49.524;8.390;2023-07-29T11:35:36;2.10;;;1.30;;
7338;SDS011;33747;49.524;8.390;2023-07-29T11:38:01;1.13;;;1.13;;
7338;SDS011;33747;49.524;8.390;2023-07-29T11:40:26;1.35;;;1.20;;
7338;SDS011;33747;49.524;8.390;2023-07-29T11:42:52;4.30;;;1.23;;
7338;SDS011;33747;49.524;8.390;2023-07-29T11:45:18;2.47;;;1.20;;
7338;SDS011;33747;49.524;8.390;2023-07-29T11:47:44;4.22;;;1.40;;
7338;SDS011;33747;49.524;8.390;2023-07-29T11:50:10;2.67;;;1.17;;
7338;SDS011;33747;49.524;8.390;2023-07-29T11:52:39;2.67;;;1.45;;
7338;SDS011;33747;49.524;8.390;2023-07-29T11:55:06;2.60;;;1.35;;
7338;SDS011;33747;49.524;8.390;2023-07-29T11:57:36;1.52;;;1.30;;
7338;SDS011;33747;49.524;8.390;2023-07-29T12:00:02;2.03;;;1.13;;
7338;SDS011;33747;49.524;8.390;2023-07-29T12:02:31;3.72;;;0.98;;
7338;SDS011;33747;49.524;8.390;2023-07-29T12:04:57;3.13;;;1.30;;
7338;SDS011;33747;49.524;8.390;2023-07-29T12:07:23;1.30;;;1.20;;
7338;SDS011;33747;49.524;8.390;2023-07-29T12:09:48;5.78;;;1.15;;
7338;SDS011;33747;49.524;8.390;2023-07-29T12:12:14;1.73;;;1.33;;
7338;SDS011;33747;49.524;8.390;2023-07-29T12:14:42;3.13;;;1.55;;
7338;SDS011;33747;49.524;8.390;2023-07-29T12:17:08;1.30;;;1.20;;
7338;SDS011;33747;49.524;8.390;2023-07-29T12:19:35;7.43;;;1.30;;
7338;SDS011;33747;49.524;8.390;2023-07-29T12:22:02;1.40;;;1.17;;
7338;SDS011;33747;49.524;8.390;2023-07-29T12:24:31;1.13;;;1.13;;
7338;SDS011;33747;49.524;8.390;2023-07-29T12:26:57;2.80;;;1.33;;
7338;SDS011;33747;49.524;8.390;2023-07-29T12:29:22;1.42;;;1.23;;
7338;SDS011;33747;49.524;8.390;2023-07-29T12:31:49;1.98;;;1.27;;
7338;SDS011;33747;49.524;8.390;2023-07-29T12:34:24;1.70;;;0.90;;
7338;SDS011;33747;49.524;8.390;2023-07-29T12:36:50;1.30;;;1.20;;
7338;SDS011;33747;49.524;8.390;2023-07-29T12:39:17;1.33;;;1.20;;
7338;SDS011;33747;49.524;8.390;2023-07-29T12:41:46;1.00;;;1.00;;
7338;SDS011;33747;49.524;8.390;2023-07-29T12:44:13;1.52;;;1.20;;
7338;SDS011;33747;49.524;8.390;2023-07-29T12:46:38;2.97;;;1.10;;
7338;SDS011;33747;49.524;8.390;2023-07-29T12:49:03;1.88;;;1.20;;
7338;SDS011;33747;49.524;8.390;2023-07-29T12:51:29;3.85;;;1.30;;
7338;SDS011;33747;49.524;8.390;2023-07-29T12:53:55;1.20;;;1.10;;
7338;SDS011;33747;49.524;8.390;2023-07-29T12:56:20;2.70;;;1.30;;
7338;SDS011;33747;49.524;8.390;2023-07-29T12:58:45;6.53;;;1.33;;
7338;SDS011;33747;49.524;8.390;2023-07-29T13:01:11;4.82;;;1.10;;
7338;SDS011;33747;49.524;8.390;2023-07-29T13:03:42;1.00;;;1.00;;
7338;SDS011;33747;49.524;8.390;2023-07-29T13:06:07;1.70;;;1.40;;
7338;SDS011;33747;49.524;8.390;2023-07-29T13:08:32;4.10;;;1.30;;
7338;SDS011;33747;49.524;8.390;2023-07-29T13:10:58;0.90;;;0.90;;
7338;SDS011;33747;49.524;8.390;2023-07-29T13:13:23;2.03;;;1.35;;
7338;SDS011;33747;49.524;8.390;2023-07-29T13:15:49;3.42;;;1.23;;
7338;SDS011;33747;49.524;8.390;2023-07-29T13:18:14;1.30;;;1.20;;
7338;SDS011;33747;49.524;8.390;2023-07-29T13:20:39;1.00;;;1.00;;
7338;SDS011;33747;49.524;8.390;2023-07-29T13:23:05;1.75;;;1.23;;
7338;SDS011;33747;49.524;8.390;2023-07-29T13:25:30;0.98;;;0.98;;
7338;SDS011;33747;49.524;8.390;2023-07-29T13:27:55;1.45;;;1.10;;
7338;SDS011;33747;49.524;8.390;2023-07-29T13:30:21;3.65;;;1.10;;
7338;SDS011;33747;49.524;8.390;2023-07-29T13:32:46;2.85;;;1.38;;
7338;SDS011;33747;49.524;8.390;2023-07-29T13:35:12;1.20;;;1.20;;
7338;SDS011;33747;49.524;8.390;2023-07-29T13:37:37;3.92;;;1.10;;
7338;SDS011;33747;49.524;8.390;2023-07-29T13:40:02;4.82;;;1.00;;
7338;SDS011;33747;49.524;8.390;2023-07-29T13:42:28;1.40;;;0.90;;
7338;SDS011;33747;49.524;8.390;2023-07-29T13:44:53;1.30;;;1.20;;
7338;SDS011;33747;49.524;8.390;2023-07-29T13:47:19;4.15;;;1.02;;
7338;SDS011;33747;49.524;8.390;2023-07-29T13:49:44;1.55;;;1.10;;
7338;SDS011;33747;49.524;8.390;2023-07-29T13:52:10;3.92;;;1.33;;
7338;SDS011;33747;49.524;8.390;2023-07-29T13:54:35;1.48;;;1.17;;
7338;SDS011;33747;49.524;8.390;2023-07-29T13:57:00;1.10;;;1.00;;
7338;SDS011;33747;49.524;8.390;2023-07-29T13:59:26;2.13;;;1.20;;
7338;SDS011;33747;49.524;8.390;2023-07-29T14:01:51;3.33;;;1.13;;
7338;SDS011;33747;49.524;8.390;2023-07-29T14:04:17;2.83;;;1.00;;
7338;SDS011;33747;49.524;8.390;2023-07-29T14:06:42;1.45;;;1.35;;
7338;SDS011;33747;49.524;8.390;2023-07-29T14:09:08;1.15;;;1.15;;
7338;SDS011;33747;49.524;8.390;2023-07-29T14:11:33;0.90;;;0.90;;
7338;SDS011;33747;49.524;8.390;2023-07-29T14:13:58;2.25;;;1.20;;
7338;SDS011;33747;49.524;8.390;2023-07-29T14:16:24;1.98;;;1.38;;
7338;SDS011;33747;49.524;8.390;2023-07-29T14:18:49;1.58;;;1.40;;
7338;SDS011;33747;49.524;8.390;2023-07-29T14:21:15;1.02;;;1.00;;
7338;SDS011;33747;49.524;8.390;2023-07-29T14:23:40;1.23;;;1.13;;
7338;SDS011;33747;49.524;8.390;2023-07-29T14:26:05;5.35;;;1.20;;
7338;SDS011;33747;49.524;8.390;2023-07-29T14:28:31;2.75;;;1.20;;
7338;SDS011;33747;49.524;8.390;2023-07-29T14:30:56;4.82;;;1.00;;
7338;SDS011;33747;49.524;8.390;2023-07-29T14:33:22;1.20;;;1.05;;
7338;SDS011;33747;49.524;8.390;2023-07-29T14:35:47;1.83;;;1.30;;
7338;SDS011;33747;49.524;8.390;2023-07-29T14:38:12;1.02;;;0.93;;
7338;SDS011;33747;49.524;8.390;2023-07-29T14:40:38;1.80;;;1.27;;
7338;SDS011;33747;49.524;8.390;2023-07-29T14:43:03;4.75;;;1.10;;
7338;SDS011;33747;49.524;8.390;2023-07-29T14:45:29;1.13;;;1.13;;
7338;SDS011;33747;49.524;8.390;2023-07-29T14:47:54;1.48;;;1.30;;
7338;SDS011;33747;49.524;8.390;2023-07-29T14:50:19;1.85;;;1.20;;
7338;SDS011;33747;49.524;8.390;2023-07-29T14:52:45;1.50;;;1.20;;
7338;SDS011;33747;49.524;8.390;2023-07-29T14:55:10;2.35;;;1.20;;
7338;SDS011;33747;49.524;8.390;2023-07-29T14:57:35;2.30;;;1.10;;
7338;SDS011;33747;49.524;8.390;2023-07-29T15:00:01;3.03;;;1.35;;
7338;SDS011;33747;49.524;8.390;2023-07-29T15:02:26;1.77;;;1.33;;